Aérodrome :
LOGIN :

S'inscrire | Disclaimer

   EN    FR    IT 

 










Légende :    VFR   VFR Marginal   IFR   IFR Intensif   IFR Très Intensif
Visi : 
Plafond : 
>= 8 km
>= 3000ft
5 à 8 km
1000 à 3000 ft
1500m à 5 km
500 à 1000 ft
800 à 1500m
200 à 500 ft
< 800m
< 200 ft
Symboles :   Orages  Brouillard  Fortes neiges  Fortes précipitations  Vent > 20 kt
SIGMETs :   Divers  Orages  Givrage  Turbulence  Onde Orograph.  Cendres Volcan.






- Altitude de l'aérodrome : 309 ft
- Code IATA : FNI


LFTW - Nîmes Garons

DERNIER METAR :
  • 270000Z AUTO 27007KT CAVOK 10/04 Q1012

METARs EXPIRÉS :
  • 262330Z AUTO 29007KT CAVOK 10/04 Q1013
  • 262300Z AUTO 30006KT CAVOK 10/04 Q1013
  • 262230Z AUTO 31006KT 290V350 CAVOK 11/04 Q1013
  • 262200Z AUTO 30009KT CAVOK 11/04 Q1013
  • 262130Z AUTO 30010KT CAVOK 12/04 Q1012

TAF TAF LFTW
Valide du 26 à 15h jusqu'au 27 à 15h UTC


261400Z 2615/2715 29010KT CAVOK



MET'MAP, la Météo Aéronautique d'un coup d'oeil ! - Copyright ORBIFLY Décembre 2007 - Disclaimer

ORBIFLY MET'MAP TEAM :

Programmation & Développement : Alexandra Zaïnal
Sur une idée originale de : Baudouin d'Aumeries
Assistance à la programmation : Marc-Olivier Méhu
Soutien technique & logistique : Manuel Goepfert

Contact : metmap@orbifly.com




SOURCES & CREDITS :

   NOAA